sensor_id;sensor_type;location;lat;lon;timestamp;pressure;altitude;pressure_sealevel;temperature
43292;BMP280;28754;47.700;7.924;2022-07-23T00:00:33;91605.59;;;21.64
43292;BMP280;28754;47.700;7.924;2022-07-23T00:03:20;91599.81;;;21.59
43292;BMP280;28754;47.700;7.924;2022-07-23T00:06:07;91605.94;;;21.63
43292;BMP280;28754;47.700;7.924;2022-07-23T00:08:53;91613.09;;;21.66
43292;BMP280;28754;47.700;7.924;2022-07-23T00:11:40;91618.00;;;21.67
43292;BMP280;28754;47.700;7.924;2022-07-23T00:14:27;91622.22;;;21.80
43292;BMP280;28754;47.700;7.924;2022-07-23T00:17:13;91616.97;;;22.00
43292;BMP280;28754;47.700;7.924;2022-07-23T00:20:00;91611.34;;;22.18
43292;BMP280;28754;47.700;7.924;2022-07-23T00:22:53;91622.25;;;22.32
43292;BMP280;28754;47.700;7.924;2022-07-23T00:25:40;91635.56;;;22.39
43292;BMP280;28754;47.700;7.924;2022-07-23T00:28:27;91640.81;;;22.51
43292;BMP280;28754;47.700;7.924;2022-07-23T00:31:14;91647.16;;;22.62
43292;BMP280;28754;47.700;7.924;2022-07-23T00:34:00;91641.31;;;22.65
43292;BMP280;28754;47.700;7.924;2022-07-23T00:36:47;91642.94;;;22.69
43292;BMP280;28754;47.700;7.924;2022-07-23T00:39:34;91626.19;;;22.70
43292;BMP280;28754;47.700;7.924;2022-07-23T00:42:22;91625.53;;;22.61
43292;BMP280;28754;47.700;7.924;2022-07-23T00:45:09;91605.78;;;22.40
43292;BMP280;28754;47.700;7.924;2022-07-23T00:47:56;91617.19;;;22.15
43292;BMP280;28754;47.700;7.924;2022-07-23T00:50:43;91601.03;;;22.02
43292;BMP280;28754;47.700;7.924;2022-07-23T00:53:30;91589.25;;;21.96
43292;BMP280;28754;47.700;7.924;2022-07-23T00:56:18;91584.91;;;21.88
43292;BMP280;28754;47.700;7.924;2022-07-23T00:59:06;91593.13;;;21.90
43292;BMP280;28754;47.700;7.924;2022-07-23T01:01:53;91582.41;;;21.91
43292;BMP280;28754;47.700;7.924;2022-07-23T01:04:40;91571.97;;;21.91
43292;BMP280;28754;47.700;7.924;2022-07-23T01:07:27;91578.16;;;21.87
43292;BMP280;28754;47.700;7.924;2022-07-23T01:10:15;91573.38;;;21.89
43292;BMP280;28754;47.700;7.924;2022-07-23T01:13:22;91584.94;;;22.00
43292;BMP280;28754;47.700;7.924;2022-07-23T01:16:09;91563.00;;;22.01
43292;BMP280;28754;47.700;7.924;2022-07-23T01:18:55;91564.28;;;21.95
43292;BMP280;28754;47.700;7.924;2022-07-23T01:21:49;91563.59;;;21.86
43292;BMP280;28754;47.700;7.924;2022-07-23T01:24:36;91553.84;;;21.74
43292;BMP280;28754;47.700;7.924;2022-07-23T01:27:26;91536.31;;;21.63
43292;BMP280;28754;47.700;7.924;2022-07-23T01:30:18;91526.28;;;21.53
43292;BMP280;28754;47.700;7.924;2022-07-23T01:33:06;91509.78;;;21.49
43292;BMP280;28754;47.700;7.924;2022-07-23T01:35:52;91503.16;;;21.52
43292;BMP280;28754;47.700;7.924;2022-07-23T01:38:43;91509.38;;;21.59
43292;BMP280;28754;47.700;7.924;2022-07-23T01:41:30;91518.91;;;21.55
43292;BMP280;28754;47.700;7.924;2022-07-23T01:44:17;91528.19;;;21.44
43292;BMP280;28754;47.700;7.924;2022-07-23T01:47:04;91556.09;;;21.35
43292;BMP280;28754;47.700;7.924;2022-07-23T01:49:51;91577.16;;;21.31
43292;BMP280;28754;47.700;7.924;2022-07-23T01:53:04;91580.50;;;21.31
43292;BMP280;28754;47.700;7.924;2022-07-23T01:55:51;91598.53;;;21.36
43292;BMP280;28754;47.700;7.924;2022-07-23T01:58:38;91590.16;;;21.39
43292;BMP280;28754;47.700;7.924;2022-07-23T02:01:25;91586.53;;;21.52
43292;BMP280;28754;47.700;7.924;2022-07-23T02:04:11;91581.63;;;21.50
43292;BMP280;28754;47.700;7.924;2022-07-23T02:06:58;91591.34;;;21.41
43292;BMP280;28754;47.700;7.924;2022-07-23T02:09:47;91570.88;;;21.23
43292;BMP280;28754;47.700;7.924;2022-07-23T02:12:33;91564.41;;;21.09
43292;BMP280;28754;47.700;7.924;2022-07-23T02:15:20;91546.88;;;20.89
43292;BMP280;28754;47.700;7.924;2022-07-23T02:18:07;91556.91;;;20.79
43292;BMP280;28754;47.700;7.924;2022-07-23T02:20:54;91572.38;;;20.75
43292;BMP280;28754;47.700;7.924;2022-07-23T02:23:41;91584.78;;;20.70
43292;BMP280;28754;47.700;7.924;2022-07-23T02:26:28;91582.22;;;20.62
43292;BMP280;28754;47.700;7.924;2022-07-23T02:29:15;91579.28;;;20.55
43292;BMP280;28754;47.700;7.924;2022-07-23T02:32:02;91586.97;;;20.51
43292;BMP280;28754;47.700;7.924;2022-07-23T02:34:49;91584.03;;;20.53
43292;BMP280;28754;47.700;7.924;2022-07-23T02:37:37;91593.84;;;20.56
43292;BMP280;28754;47.700;7.924;2022-07-23T02:40:23;91607.59;;;20.65
43292;BMP280;28754;47.700;7.924;2022-07-23T02:43:10;91570.25;;;20.69
43292;BMP280;28754;47.700;7.924;2022-07-23T02:45:58;91549.91;;;20.63
43292;BMP280;28754;47.700;7.924;2022-07-23T02:48:45;91537.66;;;20.55
43292;BMP280;28754;47.700;7.924;2022-07-23T02:51:32;91547.78;;;20.56
43292;BMP280;28754;47.700;7.924;2022-07-23T02:54:23;91549.59;;;20.64
43292;BMP280;28754;47.700;7.924;2022-07-23T02:57:11;91535.78;;;20.72
43292;BMP280;28754;47.700;7.924;2022-07-23T02:59:59;91543.31;;;20.65
43292;BMP280;28754;47.700;7.924;2022-07-23T03:02:45;91555.75;;;20.60
43292;BMP280;28754;47.700;7.924;2022-07-23T03:05:32;91594.59;;;20.65
43292;BMP280;28754;47.700;7.924;2022-07-23T03:12:46;91721.53;;;21.13
43292;BMP280;28754;47.700;7.924;2022-07-23T03:15:33;91630.19;;;21.26
43292;BMP280;28754;47.700;7.924;2022-07-23T03:18:20;91655.59;;;20.92
43292;BMP280;28754;47.700;7.924;2022-07-23T03:21:07;91670.34;;;20.55
43292;BMP280;28754;47.700;7.924;2022-07-23T03:23:54;91642.69;;;20.25
43292;BMP280;28754;47.700;7.924;2022-07-23T03:26:41;91634.75;;;20.05
43292;BMP280;28754;47.700;7.924;2022-07-23T03:29:28;91625.28;;;19.92
43292;BMP280;28754;47.700;7.924;2022-07-23T03:32:14;91613.22;;;19.88
43292;BMP280;28754;47.700;7.924;2022-07-23T03:35:01;91603.56;;;19.80
43292;BMP280;28754;47.700;7.924;2022-07-23T03:37:48;91611.03;;;19.73
43292;BMP280;28754;47.700;7.924;2022-07-23T03:40:35;91642.22;;;19.73
43292;BMP280;28754;47.700;7.924;2022-07-23T03:43:22;91659.97;;;19.79
43292;BMP280;28754;47.700;7.924;2022-07-23T03:46:11;91699.00;;;20.04
43292;BMP280;28754;47.700;7.924;2022-07-23T03:48:58;91695.16;;;20.27
43292;BMP280;28754;47.700;7.924;2022-07-23T03:51:44;91632.59;;;20.32
43292;BMP280;28754;47.700;7.924;2022-07-23T03:54:31;91630.03;;;20.15
43292;BMP280;28754;47.700;7.924;2022-07-23T03:57:18;91615.66;;;20.01
43292;BMP280;28754;47.700;7.924;2022-07-23T04:00:07;91604.03;;;19.90
43292;BMP280;28754;47.700;7.924;2022-07-23T04:03:00;91594.06;;;19.75
43292;BMP280;28754;47.700;7.924;2022-07-23T04:05:47;91589.50;;;19.64
43292;BMP280;28754;47.700;7.924;2022-07-23T04:08:35;91597.44;;;19.59
43292;BMP280;28754;47.700;7.924;2022-07-23T04:11:22;91602.47;;;19.47
43292;BMP280;28754;47.700;7.924;2022-07-23T04:14:08;91604.31;;;19.47
43292;BMP280;28754;47.700;7.924;2022-07-23T04:16:55;91605.97;;;19.51
43292;BMP280;28754;47.700;7.924;2022-07-23T04:19:42;91598.38;;;19.55
43292;BMP280;28754;47.700;7.924;2022-07-23T04:22:30;91611.31;;;19.63
43292;BMP280;28754;47.700;7.924;2022-07-23T04:25:17;91611.97;;;19.68
43292;BMP280;28754;47.700;7.924;2022-07-23T04:28:04;91615.19;;;19.74
43292;BMP280;28754;47.700;7.924;2022-07-23T04:30:52;91613.78;;;19.68
43292;BMP280;28754;47.700;7.924;2022-07-23T04:33:38;91621.72;;;19.71
43292;BMP280;28754;47.700;7.924;2022-07-23T04:36:27;91620.22;;;19.70
43292;BMP280;28754;47.700;7.924;2022-07-23T04:39:14;91612.41;;;19.70
43292;BMP280;28754;47.700;7.924;2022-07-23T04:42:02;91620.25;;;19.79
43292;BMP280;28754;47.700;7.924;2022-07-23T04:44:50;91632.63;;;19.82
43292;BMP280;28754;47.700;7.924;2022-07-23T04:47:37;91633.06;;;19.84
43292;BMP280;28754;47.700;7.924;2022-07-23T04:50:24;91634.47;;;19.98
43292;BMP280;28754;47.700;7.924;2022-07-23T04:53:14;91632.78;;;20.19
43292;BMP280;28754;47.700;7.924;2022-07-23T04:56:01;91634.75;;;20.30
43292;BMP280;28754;47.700;7.924;2022-07-23T04:58:50;91625.09;;;20.39
43292;BMP280;28754;47.700;7.924;2022-07-23T05:01:38;91634.72;;;20.47
43292;BMP280;28754;47.700;7.924;2022-07-23T05:04:24;91647.09;;;20.50
43292;BMP280;28754;47.700;7.924;2022-07-23T05:07:11;91647.56;;;20.43
43292;BMP280;28754;47.700;7.924;2022-07-23T05:09:58;91650.94;;;20.44
43292;BMP280;28754;47.700;7.924;2022-07-23T05:12:45;91641.59;;;20.43
43292;BMP280;28754;47.700;7.924;2022-07-23T05:15:32;91637.78;;;20.40
43292;BMP280;28754;47.700;7.924;2022-07-23T05:18:19;91636.41;;;20.43
43292;BMP280;28754;47.700;7.924;2022-07-23T05:21:05;91637.78;;;20.40
43292;BMP280;28754;47.700;7.924;2022-07-23T05:23:53;91626.00;;;20.43
43292;BMP280;28754;47.700;7.924;2022-07-23T05:26:40;91622.00;;;20.54
43292;BMP280;28754;47.700;7.924;2022-07-23T05:29:27;91622.13;;;20.57
43292;BMP280;28754;47.700;7.924;2022-07-23T05:32:13;91626.56;;;20.57
43292;BMP280;28754;47.700;7.924;2022-07-23T05:35:08;91633.78;;;20.68
43292;BMP280;28754;47.700;7.924;2022-07-23T05:38:00;91645.06;;;20.80
43292;BMP280;28754;47.700;7.924;2022-07-23T05:40:47;91649.19;;;20.81
43292;BMP280;28754;47.700;7.924;2022-07-23T05:43:34;91661.28;;;20.86
43292;BMP280;28754;47.700;7.924;2022-07-23T05:46:27;91649.31;;;20.93
43292;BMP280;28754;47.700;7.924;2022-07-23T05:49:18;91658.94;;;21.01
43292;BMP280;28754;47.700;7.924;2022-07-23T05:52:38;91668.72;;;21.04
43292;BMP280;28754;47.700;7.924;2022-07-23T05:55:53;91671.16;;;21.09
43292;BMP280;28754;47.700;7.924;2022-07-23T05:58:40;91673.72;;;21.17
43292;BMP280;28754;47.700;7.924;2022-07-23T06:01:27;91672.34;;;21.20
43292;BMP280;28754;47.700;7.924;2022-07-23T06:04:22;91681.38;;;21.22
43292;BMP280;28754;47.700;7.924;2022-07-23T06:07:25;91680.13;;;21.28
43292;BMP280;28754;47.700;7.924;2022-07-23T06:10:12;91687.28;;;21.31
43292;BMP280;28754;47.700;7.924;2022-07-23T06:12:59;91683.94;;;21.31
43292;BMP280;28754;47.700;7.924;2022-07-23T06:15:46;91681.03;;;21.32
43292;BMP280;28754;47.700;7.924;2022-07-23T06:18:33;91688.69;;;21.37
43292;BMP280;28754;47.700;7.924;2022-07-23T06:21:20;91687.44;;;21.43
43292;BMP280;28754;47.700;7.924;2022-07-23T06:24:07;91674.53;;;21.46
43292;BMP280;28754;47.700;7.924;2022-07-23T06:26:53;91674.97;;;21.48
43292;BMP280;28754;47.700;7.924;2022-07-23T06:29:40;91665.59;;;21.56
43292;BMP280;28754;47.700;7.924;2022-07-23T06:32:27;91670.63;;;21.61
43292;BMP280;28754;47.700;7.924;2022-07-23T06:35:15;91678.31;;;21.57
43292;BMP280;28754;47.700;7.924;2022-07-23T06:38:02;91663.91;;;21.51
43292;BMP280;28754;47.700;7.924;2022-07-23T06:40:49;91664.66;;;21.60
43292;BMP280;28754;47.700;7.924;2022-07-23T06:43:35;91691.88;;;21.71
43292;BMP280;28754;47.700;7.924;2022-07-23T06:46:22;91686.13;;;21.86
43292;BMP280;28754;47.700;7.924;2022-07-23T06:49:10;91686.94;;;21.98
43292;BMP280;28754;47.700;7.924;2022-07-23T06:51:59;91686.63;;;22.00
43292;BMP280;28754;47.700;7.924;2022-07-23T06:54:46;91694.91;;;22.02
43292;BMP280;28754;47.700;7.924;2022-07-23T06:57:33;91695.50;;;22.07
43292;BMP280;28754;47.700;7.924;2022-07-23T07:00:20;91709.88;;;22.13
43292;BMP280;28754;47.700;7.924;2022-07-23T07:03:07;91723.19;;;22.20
43292;BMP280;28754;47.700;7.924;2022-07-23T07:05:54;91723.81;;;22.17
43292;BMP280;28754;47.700;7.924;2022-07-23T07:08:41;91726.91;;;22.10
43292;BMP280;28754;47.700;7.924;2022-07-23T07:11:29;91719.88;;;22.02
43292;BMP280;28754;47.700;7.924;2022-07-23T07:14:16;91737.28;;;21.99
43292;BMP280;28754;47.700;7.924;2022-07-23T07:17:02;91739.72;;;21.95
43292;BMP280;28754;47.700;7.924;2022-07-23T07:19:49;91743.84;;;21.96
43292;BMP280;28754;47.700;7.924;2022-07-23T07:22:36;91740.03;;;21.94
43292;BMP280;28754;47.700;7.924;2022-07-23T07:25:22;91734.22;;;21.97
43292;BMP280;28754;47.700;7.924;2022-07-23T07:28:09;91739.69;;;22.03
43292;BMP280;28754;47.700;7.924;2022-07-23T07:30:56;91727.38;;;22.12
43292;BMP280;28754;47.700;7.924;2022-07-23T07:33:43;91718.22;;;22.27
43292;BMP280;28754;47.700;7.924;2022-07-23T07:36:29;91724.09;;;22.44
43292;BMP280;28754;47.700;7.924;2022-07-23T07:39:16;91724.84;;;22.65
43292;BMP280;28754;47.700;7.924;2022-07-23T07:42:03;91711.47;;;22.86
43292;BMP280;28754;47.700;7.924;2022-07-23T07:44:53;91728.69;;;22.99
43292;BMP280;28754;47.700;7.924;2022-07-23T07:52:36;91732.44;;;23.22
43292;BMP280;28754;47.700;7.924;2022-07-23T07:55:25;91726.75;;;23.20
43292;BMP280;28754;47.700;7.924;2022-07-23T07:58:13;91768.81;;;23.27
43292;BMP280;28754;47.700;7.924;2022-07-23T08:24:03;91758.16;;;23.43
43292;BMP280;28754;47.700;7.924;2022-07-23T09:03:52;91764.00;;;23.73
43292;BMP280;28754;47.700;7.924;2022-07-23T10:07:07;91760.81;;;24.62
43292;BMP280;28754;47.700;7.924;2022-07-23T10:11:11;91763.69;;;24.45
43292;BMP280;28754;47.700;7.924;2022-07-23T10:15:11;91784.41;;;24.38
43292;BMP280;28754;47.700;7.924;2022-07-23T10:24:28;91773.25;;;24.53
43292;BMP280;28754;47.700;7.924;2022-07-23T10:28:30;91774.84;;;24.69
43292;BMP280;28754;47.700;7.924;2022-07-23T10:31:38;91785.31;;;24.81
43292;BMP280;28754;47.700;7.924;2022-07-23T10:37:54;91783.09;;;24.95
43292;BMP280;28754;47.700;7.924;2022-07-23T10:42:17;91790.63;;;24.96
43292;BMP280;28754;47.700;7.924;2022-07-23T10:52:20;91779.25;;;25.04
43292;BMP280;28754;47.700;7.924;2022-07-23T10:57:57;91784.13;;;25.33
43292;BMP280;28754;47.700;7.924;2022-07-23T11:00:44;91788.22;;;25.46
43292;BMP280;28754;47.700;7.924;2022-07-23T11:03:35;91789.38;;;25.60
43292;BMP280;28754;47.700;7.924;2022-07-23T11:06:23;91791.41;;;25.66
43292;BMP280;28754;47.700;7.924;2022-07-23T11:09:41;91784.34;;;25.55
43292;BMP280;28754;47.700;7.924;2022-07-23T11:15:14;91777.41;;;25.47
43292;BMP280;28754;47.700;7.924;2022-07-23T11:18:01;91783.41;;;25.48
43292;BMP280;28754;47.700;7.924;2022-07-23T11:20:48;91780.28;;;25.57
43292;BMP280;28754;47.700;7.924;2022-07-23T11:26:51;91776.75;;;25.96
43292;BMP280;28754;47.700;7.924;2022-07-23T11:29:38;91791.91;;;26.02
43292;BMP280;28754;47.700;7.924;2022-07-23T11:32:30;91789.22;;;26.14
43292;BMP280;28754;47.700;7.924;2022-07-23T11:35:26;91782.41;;;26.13
43292;BMP280;28754;47.700;7.924;2022-07-23T11:38:16;91779.59;;;26.18
43292;BMP280;28754;47.700;7.924;2022-07-23T11:41:03;91784.06;;;26.18
43292;BMP280;28754;47.700;7.924;2022-07-23T11:43:50;91776.09;;;26.29
43292;BMP280;28754;47.700;7.924;2022-07-23T11:46:37;91770.84;;;26.29
43292;BMP280;28754;47.700;7.924;2022-07-23T11:49:24;91775.94;;;26.23
43292;BMP280;28754;47.700;7.924;2022-07-23T11:52:14;91781.50;;;26.21
43292;BMP280;28754;47.700;7.924;2022-07-23T11:55:08;91781.44;;;26.18
43292;BMP280;28754;47.700;7.924;2022-07-23T11:57:56;91782.03;;;26.26
43292;BMP280;28754;47.700;7.924;2022-07-23T12:00:43;91784.97;;;26.40
43292;BMP280;28754;47.700;7.924;2022-07-23T12:03:29;91774.88;;;26.42
43292;BMP280;28754;47.700;7.924;2022-07-23T12:06:16;91786.31;;;26.50
43292;BMP280;28754;47.700;7.924;2022-07-23T12:09:03;91775.88;;;26.53
43292;BMP280;28754;47.700;7.924;2022-07-23T12:12:00;91784.53;;;26.72
43292;BMP280;28754;47.700;7.924;2022-07-23T12:14:57;91782.72;;;26.92
43292;BMP280;28754;47.700;7.924;2022-07-23T12:17:47;91788.53;;;27.00
43292;BMP280;28754;47.700;7.924;2022-07-23T12:20:37;91780.53;;;27.12
43292;BMP280;28754;47.700;7.924;2022-07-23T12:23:26;91773.59;;;27.23
43292;BMP280;28754;47.700;7.924;2022-07-23T12:26:13;91770.63;;;27.25
43292;BMP280;28754;47.700;7.924;2022-07-23T12:29:00;91781.69;;;27.15
43292;BMP280;28754;47.700;7.924;2022-07-23T12:31:46;91765.38;;;27.25
43292;BMP280;28754;47.700;7.924;2022-07-23T12:34:33;91768.59;;;27.37
43292;BMP280;28754;47.700;7.924;2022-07-23T12:37:37;91772.56;;;27.46
43292;BMP280;28754;47.700;7.924;2022-07-23T12:40:31;91769.97;;;27.50
43292;BMP280;28754;47.700;7.924;2022-07-23T12:43:21;91781.56;;;27.45
43292;BMP280;28754;47.700;7.924;2022-07-23T12:46:19;91777.59;;;27.36
43292;BMP280;28754;47.700;7.924;2022-07-23T12:49:06;91765.72;;;27.23
43292;BMP280;28754;47.700;7.924;2022-07-23T12:51:53;91771.19;;;27.15
43292;BMP280;28754;47.700;7.924;2022-07-23T12:54:39;91776.72;;;27.10
43292;BMP280;28754;47.700;7.924;2022-07-23T12:57:46;91771.66;;;27.01
43292;BMP280;28754;47.700;7.924;2022-07-23T13:01:02;91774.28;;;26.83
43292;BMP280;28754;47.700;7.924;2022-07-23T13:06:55;91769.72;;;26.80
43292;BMP280;28754;47.700;7.924;2022-07-23T13:09:42;91765.28;;;26.84
43292;BMP280;28754;47.700;7.924;2022-07-23T13:12:28;91763.22;;;26.92
43292;BMP280;28754;47.700;7.924;2022-07-23T13:15:15;91766.75;;;27.00
43292;BMP280;28754;47.700;7.924;2022-07-23T13:18:02;91760.31;;;26.97
43292;BMP280;28754;47.700;7.924;2022-07-23T13:20:50;91747.38;;;27.08
43292;BMP280;28754;47.700;7.924;2022-07-23T13:23:36;91758.78;;;27.15
43292;BMP280;28754;47.700;7.924;2022-07-23T13:26:24;91754.03;;;27.21
43292;BMP280;28754;47.700;7.924;2022-07-23T13:29:11;91756.28;;;27.22
43292;BMP280;28754;47.700;7.924;2022-07-23T13:31:57;91755.66;;;27.28
43292;BMP280;28754;47.700;7.924;2022-07-23T13:34:44;91751.31;;;27.36
43292;BMP280;28754;47.700;7.924;2022-07-23T13:37:31;91762.56;;;27.36
43292;BMP280;28754;47.700;7.924;2022-07-23T13:40:17;91760.28;;;27.35
43292;BMP280;28754;47.700;7.924;2022-07-23T13:43:06;91761.81;;;27.36
43292;BMP280;28754;47.700;7.924;2022-07-23T13:45:53;91758.25;;;27.44
43292;BMP280;28754;47.700;7.924;2022-07-23T13:48:40;91759.22;;;27.58
43292;BMP280;28754;47.700;7.924;2022-07-23T13:51:26;91764.69;;;27.68
43292;BMP280;28754;47.700;7.924;2022-07-23T13:54:13;91765.16;;;27.74
43292;BMP280;28754;47.700;7.924;2022-07-23T13:57:00;91758.22;;;27.85
43292;BMP280;28754;47.700;7.924;2022-07-23T13:59:46;91752.00;;;27.96
43292;BMP280;28754;47.700;7.924;2022-07-23T14:02:35;91756.66;;;28.02
43292;BMP280;28754;47.700;7.924;2022-07-23T14:05:21;91764.75;;;27.94
43292;BMP280;28754;47.700;7.924;2022-07-23T14:08:09;91761.91;;;27.80
43292;BMP280;28754;47.700;7.924;2022-07-23T14:10:56;91763.44;;;27.62
43292;BMP280;28754;47.700;7.924;2022-07-23T14:13:43;91769.03;;;27.39
43292;BMP280;28754;47.700;7.924;2022-07-23T14:16:30;91764.44;;;27.36
43292;BMP280;28754;47.700;7.924;2022-07-23T14:19:17;91759.03;;;27.48
43292;BMP280;28754;47.700;7.924;2022-07-23T14:22:03;91762.34;;;27.63
43292;BMP280;28754;47.700;7.924;2022-07-23T14:24:50;91756.91;;;27.75
43292;BMP280;28754;47.700;7.924;2022-07-23T14:27:37;91760.84;;;27.85
43292;BMP280;28754;47.700;7.924;2022-07-23T14:30:25;91753.09;;;27.95
43292;BMP280;28754;47.700;7.924;2022-07-23T14:33:12;91754.88;;;28.10
43292;BMP280;28754;47.700;7.924;2022-07-23T14:36:01;91751.66;;;28.20
43292;BMP280;28754;47.700;7.924;2022-07-23T14:38:49;91761.19;;;28.28
43292;BMP280;28754;47.700;7.924;2022-07-23T14:41:35;91750.94;;;28.23
43292;BMP280;28754;47.700;7.924;2022-07-23T14:44:23;91749.75;;;28.20
43292;BMP280;28754;47.700;7.924;2022-07-23T14:53:11;91733.81;;;28.10
43292;BMP280;28754;47.700;7.924;2022-07-23T15:01:34;91752.88;;;28.26
43292;BMP280;28754;47.700;7.924;2022-07-23T15:23:33;91748.97;;;27.72
43292;BMP280;28754;47.700;7.924;2022-07-23T15:27:13;91749.06;;;27.79
43292;BMP280;28754;47.700;7.924;2022-07-23T15:30:52;91752.16;;;27.84
43292;BMP280;28754;47.700;7.924;2022-07-23T15:34:21;91742.13;;;27.90
43292;BMP280;28754;47.700;7.924;2022-07-23T15:37:07;91751.59;;;27.94
43292;BMP280;28754;47.700;7.924;2022-07-23T15:39:54;91754.63;;;27.96
43292;BMP280;28754;47.700;7.924;2022-07-23T15:42:41;91744.41;;;27.91
43292;BMP280;28754;47.700;7.924;2022-07-23T15:45:31;91751.41;;;27.84
43292;BMP280;28754;47.700;7.924;2022-07-23T15:48:19;91754.38;;;27.82
43292;BMP280;28754;47.700;7.924;2022-07-23T15:51:06;91744.56;;;27.79
43292;BMP280;28754;47.700;7.924;2022-07-23T15:53:53;91741.22;;;27.82
43292;BMP280;28754;47.700;7.924;2022-07-23T15:56:39;91747.63;;;27.81
43292;BMP280;28754;47.700;7.924;2022-07-23T15:59:26;91745.97;;;27.73
43292;BMP280;28754;47.700;7.924;2022-07-23T16:02:13;91745.16;;;27.69
43292;BMP280;28754;47.700;7.924;2022-07-23T16:05:00;91748.81;;;27.65
43292;BMP280;28754;47.700;7.924;2022-07-23T16:07:46;91751.00;;;27.60
43292;BMP280;28754;47.700;7.924;2022-07-23T16:10:33;91744.84;;;27.52
43292;BMP280;28754;47.700;7.924;2022-07-23T16:13:20;91744.09;;;27.52
43292;BMP280;28754;47.700;7.924;2022-07-23T16:16:08;91746.44;;;27.57
43292;BMP280;28754;47.700;7.924;2022-07-23T16:18:56;91740.56;;;27.63
43292;BMP280;28754;47.700;7.924;2022-07-23T16:21:44;91746.25;;;27.68
43292;BMP280;28754;47.700;7.924;2022-07-23T16:24:30;91735.28;;;27.63
43292;BMP280;28754;47.700;7.924;2022-07-23T16:27:18;91744.28;;;27.62
43292;BMP280;28754;47.700;7.924;2022-07-23T16:30:07;91741.72;;;27.65
43292;BMP280;28754;47.700;7.924;2022-07-23T16:32:55;91742.81;;;27.64
43292;BMP280;28754;47.700;7.924;2022-07-23T16:35:43;91733.41;;;27.63
43292;BMP280;28754;47.700;7.924;2022-07-23T16:38:30;91739.00;;;27.62
43292;BMP280;28754;47.700;7.924;2022-07-23T16:41:17;91725.41;;;27.57
43292;BMP280;28754;47.700;7.924;2022-07-23T16:44:04;91735.78;;;27.50
43292;BMP280;28754;47.700;7.924;2022-07-23T16:46:51;91737.97;;;27.44
43292;BMP280;28754;47.700;7.924;2022-07-23T16:49:38;91743.81;;;27.38
43292;BMP280;28754;47.700;7.924;2022-07-23T16:52:24;91736.97;;;27.33
43292;BMP280;28754;47.700;7.924;2022-07-23T16:55:11;91745.13;;;27.28
43292;BMP280;28754;47.700;7.924;2022-07-23T16:57:58;91750.06;;;27.30
43292;BMP280;28754;47.700;7.924;2022-07-23T17:00:45;91748.97;;;27.31
43292;BMP280;28754;47.700;7.924;2022-07-23T17:03:33;91743.00;;;27.34
43292;BMP280;28754;47.700;7.924;2022-07-23T17:06:19;91745.63;;;27.34
43292;BMP280;28754;47.700;7.924;2022-07-23T17:09:07;91746.34;;;27.31
43292;BMP280;28754;47.700;7.924;2022-07-23T17:11:53;91736.84;;;27.26
43292;BMP280;28754;47.700;7.924;2022-07-23T17:14:41;91739.84;;;27.25
43292;BMP280;28754;47.700;7.924;2022-07-23T17:17:28;91736.72;;;27.20
43292;BMP280;28754;47.700;7.924;2022-07-23T17:20:16;91741.91;;;27.16
43292;BMP280;28754;47.700;7.924;2022-07-23T17:23:04;91756.50;;;27.14
43292;BMP280;28754;47.700;7.924;2022-07-23T17:25:52;91751.53;;;27.09
43292;BMP280;28754;47.700;7.924;2022-07-23T17:28:39;91753.53;;;26.96
43292;BMP280;28754;47.700;7.924;2022-07-23T17:31:27;91748.13;;;26.90
43292;BMP280;28754;47.700;7.924;2022-07-23T17:34:14;91755.97;;;26.86
43292;BMP280;28754;47.700;7.924;2022-07-23T17:37:02;91750.34;;;26.88
43292;BMP280;28754;47.700;7.924;2022-07-23T17:39:49;91737.22;;;26.88
43292;BMP280;28754;47.700;7.924;2022-07-23T17:42:39;91753.72;;;26.88
43292;BMP280;28754;47.700;7.924;2022-07-23T17:45:26;91752.63;;;26.89
43292;BMP280;28754;47.700;7.924;2022-07-23T17:48:14;91751.81;;;26.85
43292;BMP280;28754;47.700;7.924;2022-07-23T17:51:02;91761.06;;;26.79
43292;BMP280;28754;47.700;7.924;2022-07-23T17:53:49;91764.69;;;26.75
43292;BMP280;28754;47.700;7.924;2022-07-23T17:56:37;91757.38;;;26.65
43292;BMP280;28754;47.700;7.924;2022-07-23T17:59:25;91754.31;;;26.63
43292;BMP280;28754;47.700;7.924;2022-07-23T18:02:13;91764.00;;;26.59
43292;BMP280;28754;47.700;7.924;2022-07-23T18:05:00;91754.94;;;26.57
43292;BMP280;28754;47.700;7.924;2022-07-23T18:07:48;91762.47;;;26.58
43292;BMP280;28754;47.700;7.924;2022-07-23T18:10:36;91762.81;;;26.57
43292;BMP280;28754;47.700;7.924;2022-07-23T18:13:23;91769.16;;;26.56
43292;BMP280;28754;47.700;7.924;2022-07-23T18:16:11;91754.00;;;26.49
43292;BMP280;28754;47.700;7.924;2022-07-23T18:18:58;91763.63;;;26.42
43292;BMP280;28754;47.700;7.924;2022-07-23T18:21:45;91765.69;;;26.33
43292;BMP280;28754;47.700;7.924;2022-07-23T18:24:33;91762.19;;;26.29
43292;BMP280;28754;47.700;7.924;2022-07-23T18:27:20;91772.63;;;26.25
43292;BMP280;28754;47.700;7.924;2022-07-23T18:30:08;91769.16;;;26.22
43292;BMP280;28754;47.700;7.924;2022-07-23T18:32:56;91768.63;;;26.16
43292;BMP280;28754;47.700;7.924;2022-07-23T18:35:44;91776.84;;;26.15
43292;BMP280;28754;47.700;7.924;2022-07-23T18:38:31;91783.19;;;26.14
43292;BMP280;28754;47.700;7.924;2022-07-23T18:41:18;91777.09;;;26.10
43292;BMP280;28754;47.700;7.924;2022-07-23T18:44:05;91790.56;;;26.08
43292;BMP280;28754;47.700;7.924;2022-07-23T18:46:52;91784.88;;;26.06
43292;BMP280;28754;47.700;7.924;2022-07-23T18:49:40;91787.44;;;26.03
43292;BMP280;28754;47.700;7.924;2022-07-23T18:52:27;91789.28;;;26.02
43292;BMP280;28754;47.700;7.924;2022-07-23T18:55:15;91790.72;;;26.00
43292;BMP280;28754;47.700;7.924;2022-07-23T18:58:02;91788.78;;;25.97
43292;BMP280;28754;47.700;7.924;2022-07-23T19:00:49;91789.44;;;25.94
43292;BMP280;28754;47.700;7.924;2022-07-23T19:03:36;91790.56;;;25.93
43292;BMP280;28754;47.700;7.924;2022-07-23T19:06:25;91799.13;;;25.90
43292;BMP280;28754;47.700;7.924;2022-07-23T19:09:13;91801.97;;;25.85
43292;BMP280;28754;47.700;7.924;2022-07-23T19:12:00;91798.09;;;25.79
43292;BMP280;28754;47.700;7.924;2022-07-23T19:14:48;91795.97;;;25.69
43292;BMP280;28754;47.700;7.924;2022-07-23T19:17:36;91799.59;;;25.65
43292;BMP280;28754;47.700;7.924;2022-07-23T19:20:23;91808.06;;;25.58
43292;BMP280;28754;47.700;7.924;2022-07-23T19:23:10;91801.50;;;25.52
43292;BMP280;28754;47.700;7.924;2022-07-23T19:25:58;91808.50;;;25.49